createdAt,value
2019-02-25T00:00:40.847Z,5.60
2019-02-25T00:03:09.449Z,5.60
2019-02-25T00:05:37.949Z,5.70
2019-02-25T00:08:06.453Z,5.80
2019-02-25T00:10:35.095Z,5.60
2019-02-25T00:13:03.569Z,5.60
2019-02-25T00:15:32.073Z,5.60
2019-02-25T00:18:00.551Z,5.60
2019-02-25T00:20:29.046Z,5.50
2019-02-25T00:22:57.524Z,5.30
2019-02-25T00:25:26.022Z,5.30
2019-02-25T00:27:54.496Z,5.20
2019-02-25T00:30:23.642Z,5.10
2019-02-25T00:32:52.128Z,5.00
2019-02-25T00:35:20.636Z,5.00
2019-02-25T00:37:49.128Z,4.90
2019-02-25T00:40:20.878Z,4.90
2019-02-25T00:42:49.401Z,5.10
2019-02-25T00:45:17.889Z,5.20
2019-02-25T00:47:46.379Z,5.30
2019-02-25T00:50:17.261Z,5.30
2019-02-25T00:52:45.759Z,5.20
2019-02-25T00:55:14.365Z,5.30
2019-02-25T00:57:42.844Z,5.20
2019-02-25T01:00:21.591Z,5.20
2019-02-25T01:02:50.072Z,5.10
2019-02-25T01:05:18.633Z,5.10
2019-02-25T01:07:47.128Z,5.00
2019-02-25T01:10:16.172Z,5.00
2019-02-25T01:12:45.461Z,4.90
2019-02-25T01:15:14.085Z,4.90
2019-02-25T01:17:42.560Z,4.90
2019-02-25T01:20:15.155Z,5.00
2019-02-25T01:22:43.646Z,5.10
2019-02-25T01:25:13.523Z,5.00
2019-02-25T01:27:42.005Z,4.90
2019-02-25T01:30:16.029Z,4.80
2019-02-25T01:32:43.869Z,4.90
2019-02-25T01:35:12.990Z,5.10
2019-02-25T01:37:41.529Z,5.10
2019-02-25T01:40:17.722Z,5.10
2019-02-25T01:42:46.247Z,5.00
2019-02-25T01:45:21.071Z,4.90
2019-02-25T01:47:49.549Z,4.70
2019-02-25T01:50:18.023Z,4.60
2019-02-25T01:52:46.514Z,4.80
2019-02-25T01:55:15.018Z,4.90
2019-02-25T01:57:43.824Z,4.90
2019-02-25T02:00:16.423Z,4.80
2019-02-25T02:02:44.906Z,4.70
2019-02-25T02:05:13.390Z,4.60
2019-02-25T02:07:41.871Z,4.60
2019-02-25T02:10:15.030Z,4.60
2019-02-25T02:12:43.593Z,4.50
2019-02-25T02:15:14.792Z,4.60
2019-02-25T02:17:43.274Z,4.70
2019-02-25T02:20:13.796Z,4.90
2019-02-25T02:22:42.289Z,5.00
2019-02-25T02:25:11.528Z,5.00
2019-02-25T02:27:40.011Z,5.00
2019-02-25T02:30:17.732Z,5.00
2019-02-25T02:32:46.288Z,5.00
2019-02-25T02:35:14.824Z,4.90
2019-02-25T02:37:43.308Z,4.70
2019-02-25T02:40:13.144Z,4.80
2019-02-25T02:42:44.924Z,4.60
2019-02-25T02:45:19.627Z,4.60
2019-02-25T02:47:51.368Z,4.60
2019-02-25T02:50:21.984Z,4.60
2019-02-25T02:52:50.471Z,4.60
2019-02-25T02:55:18.955Z,4.60
2019-02-25T02:57:47.477Z,4.60
2019-02-25T03:00:17.585Z,4.60
2019-02-25T03:02:46.085Z,4.60
2019-02-25T03:05:15.818Z,4.70
2019-02-25T03:07:44.312Z,4.70
2019-02-25T03:10:15.509Z,4.70
2019-02-25T03:12:44.002Z,4.70
2019-02-25T03:15:17.498Z,4.70
2019-02-25T03:17:45.990Z,4.70
2019-02-25T03:20:14.483Z,4.60
2019-02-25T03:22:42.961Z,4.50
2019-02-25T03:25:13.584Z,4.50
2019-02-25T03:27:42.077Z,4.40
2019-02-25T03:30:16.746Z,4.50
2019-02-25T03:32:45.292Z,4.50
2019-02-25T03:35:13.775Z,4.40
2019-02-25T03:37:42.494Z,4.40
2019-02-25T03:40:13.323Z,4.50
2019-02-25T03:42:41.819Z,4.50
2019-02-25T03:45:12.589Z,4.40
2019-02-25T03:47:41.124Z,4.30
2019-02-25T03:50:09.738Z,4.40
2019-02-25T03:52:38.204Z,4.50
2019-02-25T03:55:15.101Z,4.40
2019-02-25T03:57:46.414Z,4.40
2019-02-25T04:00:17.588Z,4.40
2019-02-25T04:02:46.067Z,4.30
2019-02-25T04:05:14.552Z,4.30
2019-02-25T04:07:43.115Z,4.40
2019-02-25T04:10:13.137Z,4.50
2019-02-25T04:12:41.714Z,4.50
2019-02-25T04:15:12.492Z,4.50
2019-02-25T04:17:40.988Z,4.40
2019-02-25T04:20:12.071Z,4.50
2019-02-25T04:22:40.568Z,4.40
2019-02-25T04:25:09.054Z,4.40
2019-02-25T04:27:37.555Z,4.30
2019-02-25T04:30:09.275Z,4.20
2019-02-25T04:32:37.772Z,4.10
2019-02-25T04:35:08.281Z,4.00
2019-02-25T04:37:36.760Z,4.00
2019-02-25T04:40:07.794Z,4.00
2019-02-25T04:42:36.271Z,4.00
2019-02-25T04:45:07.740Z,4.00
2019-02-25T04:47:36.262Z,4.00
2019-02-25T04:50:06.090Z,4.10
2019-02-25T04:52:34.558Z,4.00
2019-02-25T04:55:03.071Z,4.00
2019-02-25T04:57:31.545Z,4.00
2019-02-25T05:00:00.030Z,3.90
2019-02-25T05:02:28.538Z,3.70
2019-02-25T05:04:57.062Z,3.90
2019-02-25T05:07:25.623Z,3.90
2019-02-25T05:09:54.173Z,3.80
2019-02-25T05:12:22.662Z,3.70
2019-02-25T05:14:51.149Z,3.60
2019-02-25T05:17:19.636Z,3.60
2019-02-25T05:19:48.127Z,3.50
2019-02-25T05:22:16.630Z,3.50
2019-02-25T05:24:45.109Z,3.50
2019-02-25T05:27:13.650Z,3.50
2019-02-25T05:29:42.145Z,3.50
2019-02-25T05:32:10.615Z,3.60
2019-02-25T05:34:39.112Z,3.70
2019-02-25T05:37:07.597Z,3.80
2019-02-25T05:39:36.109Z,3.80
2019-02-25T05:42:04.529Z,3.70
2019-02-25T05:44:33.028Z,3.70
2019-02-25T05:47:01.500Z,3.70
2019-02-25T05:49:30.074Z,3.70
2019-02-25T05:51:58.573Z,3.80
2019-02-25T05:54:27.111Z,3.80
2019-02-25T05:56:55.580Z,3.90
2019-02-25T05:59:25.106Z,3.90
2019-02-25T06:01:53.571Z,3.90
2019-02-25T06:04:22.038Z,3.90
2019-02-25T06:06:50.557Z,3.90
2019-02-25T06:09:19.028Z,4.00
2019-02-25T06:11:47.573Z,4.00
2019-02-25T06:14:16.027Z,4.10
2019-02-25T06:16:44.565Z,4.10
2019-02-25T06:19:13.040Z,4.10
2019-02-25T06:21:41.526Z,4.10
2019-02-25T06:24:10.029Z,4.00
2019-02-25T06:26:38.769Z,3.90
2019-02-25T06:29:07.325Z,3.90
2019-02-25T06:31:35.800Z,3.90
2019-02-25T06:34:04.331Z,4.00
2019-02-25T06:36:32.812Z,4.10
2019-02-25T06:39:01.284Z,4.20
2019-02-25T06:41:29.780Z,4.30
2019-02-25T06:43:58.261Z,4.20
2019-02-25T06:46:26.753Z,4.30
2019-02-25T06:48:55.236Z,4.30
2019-02-25T06:51:23.761Z,4.30
2019-02-25T06:53:52.311Z,4.30
2019-02-25T06:56:20.794Z,4.40
2019-02-25T06:58:49.327Z,4.60
2019-02-25T07:01:17.835Z,4.60
2019-02-25T07:03:47.943Z,4.50
2019-02-25T07:06:18.166Z,4.50
2019-02-25T07:08:50.936Z,4.60
2019-02-25T07:11:26.776Z,4.60
2019-02-25T07:14:02.788Z,4.70
2019-02-25T07:16:35.730Z,4.80
2019-02-25T07:19:14.666Z,4.90
2019-02-25T07:21:44.793Z,5.00
2019-02-25T07:24:23.852Z,5.10
2019-02-25T07:27:12.095Z,5.20
2019-02-25T07:29:45.440Z,5.20
2019-02-25T07:32:21.245Z,5.20
2019-02-25T07:35:03.170Z,5.40
2019-02-25T07:37:48.075Z,5.60
2019-02-25T07:40:26.928Z,5.80
2019-02-25T07:43:08.845Z,5.90
2019-02-25T07:45:39.007Z,5.90
2019-02-25T07:48:14.783Z,6.00
2019-02-25T07:50:59.784Z,6.10
2019-02-25T07:53:32.739Z,6.40
2019-02-25T07:56:17.722Z,6.60
2019-02-25T07:59:07.521Z,6.70
2019-02-25T08:01:43.319Z,6.90
2019-02-25T08:04:25.138Z,6.90
2019-02-25T08:07:01.144Z,7.00
2019-02-25T08:09:37.020Z,7.20
2019-02-25T08:12:09.764Z,7.30
2019-02-25T08:14:39.901Z,7.40
2019-02-25T08:17:26.134Z,7.50
2019-02-25T08:20:01.892Z,7.50
2019-02-25T08:22:32.058Z,7.40
2019-02-25T08:25:07.922Z,7.60
2019-02-25T08:27:43.865Z,7.60
2019-02-25T08:30:29.107Z,7.70
2019-02-25T08:33:11.036Z,7.80
2019-02-25T08:35:50.137Z,7.80
2019-02-25T08:38:25.816Z,7.90
2019-02-25T08:41:06.117Z,8.00
2019-02-25T08:43:45.183Z,8.00
2019-02-25T08:46:21.121Z,8.10
2019-02-25T08:49:09.179Z,8.10
2019-02-25T08:51:37.667Z,8.10
2019-02-25T08:54:06.167Z,8.10
2019-02-25T08:56:34.649Z,8.20
2019-02-25T08:59:03.160Z,8.30
2019-02-25T09:01:31.949Z,8.50
2019-02-25T09:04:00.420Z,8.90
2019-02-25T09:06:28.912Z,9.30
2019-02-25T09:08:57.371Z,9.90
2019-02-25T09:11:25.877Z,10.40
2019-02-25T09:13:54.346Z,10.90
2019-02-25T09:16:22.918Z,11.60
2019-02-25T09:18:51.383Z,12.40
2019-02-25T09:21:19.851Z,12.90
2019-02-25T09:23:48.353Z,13.20
2019-02-25T09:26:16.849Z,13.10
2019-02-25T09:28:45.349Z,12.80
2019-02-25T09:31:13.820Z,12.70
2019-02-25T09:33:42.352Z,13.30
2019-02-25T09:36:10.836Z,13.80
2019-02-25T09:38:39.338Z,13.90
2019-02-25T09:41:07.827Z,14.00
2019-02-25T09:43:36.312Z,14.40
2019-02-25T09:46:04.803Z,14.70
2019-02-25T09:48:33.300Z,15.20
2019-02-25T09:51:01.813Z,15.20
2019-02-25T09:53:30.302Z,15.50
2019-02-25T09:55:58.773Z,15.90
2019-02-25T09:58:27.281Z,16.40
2019-02-25T10:00:55.788Z,16.50
2019-02-25T10:03:24.311Z,16.40
2019-02-25T10:05:52.815Z,16.40
2019-02-25T10:08:21.291Z,16.80
2019-02-25T10:10:49.825Z,16.80
2019-02-25T10:13:18.301Z,16.60
2019-02-25T10:15:46.855Z,16.80
2019-02-25T10:18:15.349Z,17.20
2019-02-25T10:20:43.848Z,17.30
2019-02-25T10:23:12.360Z,18.10
2019-02-25T10:25:40.846Z,18.70
2019-02-25T10:28:09.376Z,18.50
2019-02-25T10:30:37.844Z,18.40
2019-02-25T10:33:06.340Z,18.90
2019-02-25T10:35:34.854Z,18.80
2019-02-25T10:38:03.345Z,18.60
2019-02-25T10:40:31.848Z,18.60
2019-02-25T10:43:00.343Z,19.10
2019-02-25T10:45:28.847Z,19.70
2019-02-25T10:47:58.767Z,19.40
2019-02-25T10:50:28.820Z,19.10
2019-02-25T10:53:03.503Z,18.90
2019-02-25T10:55:33.848Z,18.50
2019-02-25T10:58:03.796Z,18.30
2019-02-25T11:00:32.367Z,18.60
2019-02-25T11:03:00.849Z,19.00
2019-02-25T11:05:30.562Z,18.90
2019-02-25T11:08:00.033Z,19.30
2019-02-25T11:10:35.898Z,19.60
2019-02-25T11:13:04.513Z,19.50
2019-02-25T11:15:34.466Z,20.20
2019-02-25T11:18:02.941Z,20.40
2019-02-25T11:20:33.008Z,20.40
2019-02-25T11:23:02.247Z,20.60
2019-02-25T11:25:31.321Z,20.10
2019-02-25T11:28:04.395Z,19.90
2019-02-25T11:30:32.042Z,19.60
2019-02-25T11:33:00.591Z,19.30
2019-02-25T11:35:29.113Z,19.20
2019-02-25T11:37:59.644Z,18.70
2019-02-25T11:40:29.039Z,19.20
2019-02-25T11:42:58.138Z,19.50
2019-02-25T11:45:26.615Z,18.70
2019-02-25T11:47:55.126Z,18.80
2019-02-25T11:50:23.607Z,19.10
2019-02-25T11:52:52.095Z,19.20
2019-02-25T11:55:21.968Z,19.60
2019-02-25T11:57:50.570Z,19.70
2019-02-25T12:00:26.370Z,19.30
2019-02-25T12:02:54.848Z,19.20
2019-02-25T12:05:23.398Z,19.30
2019-02-25T12:07:51.901Z,19.30
2019-02-25T12:10:20.378Z,19.10
2019-02-25T12:12:48.883Z,19.20
2019-02-25T12:15:21.589Z,19.10
2019-02-25T12:17:52.892Z,19.40
2019-02-25T12:20:22.478Z,19.20
2019-02-25T12:22:51.167Z,19.20
2019-02-25T12:25:24.856Z,18.90
2019-02-25T12:27:53.356Z,18.70
2019-02-25T12:30:26.208Z,18.40
2019-02-25T12:32:54.693Z,18.10
2019-02-25T12:35:23.330Z,18.20
2019-02-25T12:37:51.805Z,18.20
2019-02-25T12:40:20.538Z,18.60
2019-02-25T12:42:49.059Z,18.80
2019-02-25T12:45:17.575Z,18.80
2019-02-25T12:47:46.143Z,19.30
2019-02-25T12:50:16.726Z,19.80
2019-02-25T12:52:45.196Z,20.30
2019-02-25T12:55:16.014Z,20.20
2019-02-25T12:57:44.490Z,19.80
2019-02-25T13:00:17.025Z,19.50
2019-02-25T13:02:45.492Z,19.50
2019-02-25T13:05:19.665Z,19.50
2019-02-25T13:07:48.175Z,18.90
2019-02-25T13:10:17.501Z,18.70
2019-02-25T13:12:46.119Z,18.90
2019-02-25T13:15:16.060Z,19.80
2019-02-25T13:17:44.630Z,20.50
2019-02-25T13:20:14.036Z,20.50
2019-02-25T13:22:42.622Z,20.60
2019-02-25T13:25:16.892Z,21.00
2019-02-25T13:27:45.550Z,21.20
2019-02-25T13:30:15.495Z,21.30
2019-02-25T13:32:45.013Z,21.30
2019-02-25T13:35:14.565Z,21.10
2019-02-25T13:37:43.122Z,21.80
2019-02-25T13:40:14.883Z,22.30
2019-02-25T13:42:43.365Z,22.30
2019-02-25T13:45:18.101Z,22.70
2019-02-25T13:47:46.694Z,23.60
2019-02-25T13:50:17.266Z,24.00
2019-02-25T13:52:48.642Z,23.70
2019-02-25T13:55:19.229Z,23.50
2019-02-25T13:57:49.568Z,22.80
2019-02-25T14:00:27.215Z,22.00
2019-02-25T14:02:55.811Z,22.70
2019-02-25T14:05:24.322Z,23.90
2019-02-25T14:07:54.425Z,24.70
2019-02-25T14:10:23.102Z,24.90
2019-02-25T14:12:51.584Z,24.50
2019-02-25T14:15:23.960Z,24.10
2019-02-25T14:17:52.433Z,24.00
2019-02-25T14:20:23.062Z,24.10
2019-02-25T14:22:51.572Z,24.80
2019-02-25T14:25:27.839Z,25.20
2019-02-25T14:27:56.697Z,25.60
2019-02-25T14:30:26.143Z,26.10
2019-02-25T14:32:57.127Z,25.90
2019-02-25T14:35:33.269Z,25.60
2019-02-25T14:38:15.250Z,25.90
2019-02-25T14:40:43.806Z,26.60
2019-02-25T14:43:15.100Z,26.90
2019-02-25T14:45:51.789Z,27.30
2019-02-25T14:48:36.660Z,27.70
2019-02-25T14:51:58.800Z,28.10
2019-02-25T14:54:38.191Z,28.40
2019-02-25T14:57:09.476Z,28.50
2019-02-25T14:59:38.227Z,27.50
2019-02-25T15:02:08.276Z,26.10
2019-02-25T15:04:39.555Z,26.40
2019-02-25T15:07:08.715Z,27.00
2019-02-25T15:09:41.362Z,26.70
2019-02-25T15:12:11.535Z,25.80
2019-02-25T15:15:04.752Z,25.90
2019-02-25T15:17:16.375Z,25.50
2019-02-25T15:19:52.122Z,25.90
2019-02-25T15:22:23.872Z,25.70
2019-02-25T15:25:13.712Z,25.30
2019-02-25T15:27:46.038Z,24.80
2019-02-25T15:30:25.082Z,25.10
2019-02-25T15:33:10.141Z,24.90
2019-02-25T15:35:39.382Z,24.80
2019-02-25T15:38:14.163Z,24.80
2019-02-25T15:40:43.451Z,24.20
2019-02-25T15:43:21.262Z,23.20
2019-02-25T15:45:51.198Z,23.00
2019-02-25T15:48:24.254Z,22.70
2019-02-25T15:51:01.452Z,22.50
2019-02-25T15:53:51.919Z,23.20
2019-02-25T15:56:52.798Z,23.50
2019-02-25T15:59:33.474Z,23.30
2019-02-25T16:02:14.198Z,22.20
2019-02-25T16:04:45.263Z,21.30
2019-02-25T16:07:16.878Z,20.70
2019-02-25T16:09:45.618Z,20.10
2019-02-25T16:12:17.358Z,19.70
2019-02-25T16:14:55.264Z,19.40
2019-02-25T16:17:27.605Z,18.90
2019-02-25T16:20:14.857Z,18.60
2019-02-25T16:22:43.846Z,18.50
2019-02-25T16:25:22.971Z,18.30
2019-02-25T16:27:59.355Z,18.10
2019-02-25T16:30:30.443Z,17.90
2019-02-25T16:33:02.104Z,17.70
2019-02-25T16:35:29.908Z,17.50
2019-02-25T16:38:00.340Z,17.20
2019-02-25T16:40:31.482Z,16.90
2019-02-25T16:43:02.180Z,16.70
2019-02-25T16:45:35.070Z,16.50
2019-02-25T16:48:02.472Z,16.40
2019-02-25T16:50:31.444Z,16.20
2019-02-25T16:53:03.608Z,16.10
2019-02-25T16:55:33.524Z,15.90
2019-02-25T16:58:06.062Z,15.80
2019-02-25T17:00:35.492Z,15.70
2019-02-25T17:03:06.530Z,15.60
2019-02-25T17:05:37.339Z,15.50
2019-02-25T17:08:08.011Z,15.50
2019-02-25T17:10:35.929Z,15.30
2019-02-25T17:13:05.926Z,15.10
2019-02-25T17:15:34.786Z,15.10
2019-02-25T17:18:04.422Z,15.00
2019-02-25T17:20:40.859Z,14.90
2019-02-25T17:23:16.836Z,14.80
2019-02-25T17:25:58.720Z,14.80
2019-02-25T17:28:29.168Z,14.60
2019-02-25T17:30:59.547Z,14.50
2019-02-25T17:33:32.553Z,14.40
2019-02-25T17:36:01.546Z,14.30
2019-02-25T17:38:30.745Z,14.20
2019-02-25T17:41:03.092Z,14.30
2019-02-25T17:43:34.756Z,14.10
2019-02-25T17:46:09.914Z,14.10
2019-02-25T17:48:39.757Z,14.10
2019-02-25T17:51:10.039Z,14.00
2019-02-25T17:53:45.990Z,14.00
2019-02-25T17:56:18.639Z,13.90
2019-02-25T17:58:48.492Z,13.80
2019-02-25T18:01:21.968Z,13.50
2019-02-25T18:03:50.623Z,13.40
2019-02-25T18:06:20.163Z,13.30
2019-02-25T18:08:51.012Z,13.30
2019-02-25T18:11:22.358Z,13.30
2019-02-25T18:13:51.323Z,13.20
2019-02-25T18:16:21.104Z,13.10
2019-02-25T18:18:51.989Z,12.90
2019-02-25T18:21:20.018Z,12.90
2019-02-25T18:23:49.434Z,13.00
2019-02-25T18:26:21.443Z,12.80
2019-02-25T18:28:50.709Z,12.80
2019-02-25T18:31:23.363Z,12.70
2019-02-25T18:33:59.627Z,12.70
2019-02-25T18:36:34.401Z,12.70
2019-02-25T18:39:03.350Z,12.80
2019-02-25T18:41:34.228Z,12.70
2019-02-25T18:44:04.484Z,12.60
2019-02-25T18:46:33.037Z,12.50
2019-02-25T18:49:03.023Z,12.40
2019-02-25T18:51:32.864Z,12.40
2019-02-25T18:54:03.708Z,12.50
2019-02-25T18:56:33.664Z,12.40
2019-02-25T18:59:08.257Z,12.30
2019-02-25T19:01:33.215Z,12.40
2019-02-25T19:04:02.634Z,12.40
2019-02-25T19:06:31.288Z,12.30
2019-02-25T19:08:59.917Z,12.20
2019-02-25T19:11:28.661Z,12.20
2019-02-25T19:14:01.251Z,12.20
2019-02-25T19:16:27.799Z,12.20
2019-02-25T19:18:56.349Z,12.10
2019-02-25T19:21:27.181Z,12.10
2019-02-25T19:23:55.537Z,12.10
2019-02-25T19:26:24.207Z,12.10
2019-02-25T19:28:54.594Z,12.10
2019-02-25T19:31:30.287Z,12.00
2019-02-25T19:34:02.170Z,11.80
2019-02-25T19:36:34.396Z,11.80
2019-02-25T19:39:07.735Z,11.80
2019-02-25T19:41:40.187Z,11.90
2019-02-25T19:44:10.445Z,11.90
2019-02-25T19:46:39.369Z,11.90
2019-02-25T19:49:09.260Z,11.90
2019-02-25T19:51:38.278Z,11.90
2019-02-25T19:54:11.492Z,11.90
2019-02-25T19:56:39.692Z,11.80
2019-02-25T19:59:09.626Z,11.80
2019-02-25T20:01:39.351Z,11.80
2019-02-25T20:04:12.181Z,11.80
2019-02-25T20:06:44.655Z,11.80
2019-02-25T20:09:15.677Z,11.80
2019-02-25T20:11:45.184Z,11.80
2019-02-25T20:14:16.727Z,11.70
2019-02-25T20:16:46.566Z,11.60
2019-02-25T20:19:16.665Z,11.50
2019-02-25T20:21:48.250Z,11.40
2019-02-25T20:24:16.915Z,11.40
2019-02-25T20:26:48.647Z,11.30
2019-02-25T20:29:19.823Z,11.30
2019-02-25T20:31:50.123Z,11.20
2019-02-25T20:34:20.525Z,11.10
2019-02-25T20:36:50.475Z,10.90
2019-02-25T20:39:18.925Z,10.60
2019-02-25T20:41:48.338Z,10.40
2019-02-25T20:44:18.560Z,10.30
2019-02-25T20:46:50.638Z,10.30
2019-02-25T20:49:18.779Z,10.40
2019-02-25T20:51:50.086Z,10.40
2019-02-25T20:54:23.086Z,10.50
2019-02-25T20:56:53.215Z,10.70
2019-02-25T20:59:23.453Z,10.70
2019-02-25T21:01:54.494Z,10.70
2019-02-25T21:04:23.203Z,10.50
2019-02-25T21:06:51.840Z,10.40
2019-02-25T21:09:22.137Z,10.30
2019-02-25T21:11:53.893Z,10.20
2019-02-25T21:14:22.373Z,10.20
2019-02-25T21:16:52.127Z,10.30
2019-02-25T21:19:21.038Z,10.30
2019-02-25T21:21:52.961Z,10.40
2019-02-25T21:24:31.154Z,10.50
2019-02-25T21:27:01.496Z,10.30
2019-02-25T21:29:34.825Z,10.20
2019-02-25T21:32:03.045Z,10.20
2019-02-25T21:34:32.951Z,10.20
2019-02-25T21:37:03.018Z,10.10
2019-02-25T21:39:32.633Z,10.10
2019-02-25T21:42:02.092Z,10.10
2019-02-25T21:44:31.598Z,10.10
2019-02-25T21:47:01.117Z,10.00
2019-02-25T21:49:33.778Z,9.90
2019-02-25T21:52:02.434Z,9.90
2019-02-25T21:54:37.451Z,9.90
2019-02-25T21:57:03.290Z,9.90
2019-02-25T21:59:34.378Z,9.90
2019-02-25T22:02:08.376Z,10.00
2019-02-25T22:07:33.153Z,10.00
2019-02-25T22:10:14.373Z,9.90
2019-02-25T22:12:44.338Z,9.90
2019-02-25T22:15:20.361Z,9.90
2019-02-25T22:17:52.340Z,9.70
2019-02-25T22:20:22.461Z,9.70
2019-02-25T22:23:03.646Z,9.50
2019-02-25T22:25:38.840Z,9.60
2019-02-25T22:28:12.428Z,9.50
2019-02-25T22:30:49.765Z,9.50
2019-02-25T22:33:27.737Z,9.50
2019-02-25T22:35:54.465Z,9.40
2019-02-25T22:38:24.994Z,9.30
2019-02-25T22:44:24.752Z,9.20
2019-02-25T22:46:58.128Z,9.00
2019-02-25T22:49:28.883Z,9.10
2019-02-25T22:51:58.193Z,9.30
2019-02-25T22:54:30.407Z,9.30
2019-02-25T22:57:01.725Z,9.20
2019-02-25T23:00:19.796Z,9.00
2019-02-25T23:02:43.460Z,9.00
2019-02-25T23:05:23.744Z,8.90
2019-02-25T23:07:54.708Z,8.90
2019-02-25T23:10:25.305Z,9.00
2019-02-25T23:12:53.792Z,9.00
2019-02-25T23:15:23.304Z,8.90
2019-02-25T23:18:04.416Z,8.80
2019-02-25T23:30:18.790Z,8.80
2019-02-25T23:33:04.595Z,8.80
2019-02-25T23:35:33.289Z,8.80
2019-02-25T23:38:02.071Z,8.80
2019-02-25T23:40:33.299Z,8.70
2019-02-25T23:43:03.008Z,8.60
2019-02-25T23:45:31.189Z,8.60
2019-02-25T23:48:01.473Z,8.60
2019-02-25T23:50:31.737Z,8.60
2019-02-25T23:53:00.486Z,8.60
2019-02-25T23:55:29.707Z,8.50
2019-02-25T23:57:58.400Z,8.40
